Marshall, VA (20115)

8:01 PM EST on December 03, 2016 (GMT -0500)
Orlean | | Change Station

Elev 564 ft 38.77 °N, 77.93 °W | Updated 4 seconds ago

Clear
Clear
38.0 °F
Feels Like 38 °F
N
2.0
Wind Variable Wind from NNE

Today
High -- | Low -- °F
--% Chance of Precip.
Yesterday
High -- | Low -- °F
Precip. -- in
Pressure 30.26 in
Visibility 10.0 miles
Clouds Clear
Windchill 38 °F
Dew Point 29 °F
Humidity 70%
Rainfall 0.00 in
Snow Depth Not available.
7:13 AM 4:49 PM
Waxing Crescent, 18% visible
METAR KHWY 040055Z AUTO 35011KT 10SM CLR 05/M04 A3026 RMK AO2 T00451043
Pressure 30.26 in
Visibility 10.0 miles
Clouds Clear
Windchill 38 °F
Dew Point 29 °F
Humidity 70%
Rainfall 0.00 in
Snow Depth Not available.
7:13 AM 4:49 PM
Waxing Crescent, 18% visible
METAR KHWY 040055Z AUTO 35011KT 10SM CLR 05/M04 A3026 RMK AO2 T00451043

10-Day Weather Forecast

Almanac

Astronomy

Dec. 03, 2016 Rise Set
Actual Time
Civil Twilight
Nautical Twilight
Astronomical Twilight
Moon
Length of Visible Light
Length of Day
Tomorrow will be .
, % of the Moon is Illuminated

Today's Extremes

State Highs State Lows

Community

WunderPhotos

Upload Photos

1,955,542 photos uploaded!

WunderBlog® & News

Nearby

Air Quality

  Air Quality AQ Index Pollutant
Not available.

Snow Depth

Station Depth Elevation

Earthquake Activity

City Distance Mag. Time & Date
Minimum magnitude displayed is 2.5.

Coastal Water Temperatures

Place Temperature

Stations

Nearby Weather Stations

Station Location Temp. Windchill Dew Point Humidity Wind Precip. Elev Updated Type
                   

Watches & Warnings

There are currently no watches in effect.